sensor_id;sensor_type;location;lat;lon;timestamp;pressure;altitude;pressure_sealevel;temperature;humidity
15568;BME280;7885;42.596;23.044;2022-11-15T00:01:18;93462.97;;;5.64;77.37
15568;BME280;7885;42.596;23.044;2022-11-15T00:03:46;93466.78;;;5.63;78.07
15568;BME280;7885;42.596;23.044;2022-11-15T00:06:12;93458.19;;;5.57;78.59
15568;BME280;7885;42.596;23.044;2022-11-15T00:08:39;93469.16;;;5.65;80.57
15568;BME280;7885;42.596;23.044;2022-11-15T00:11:06;93466.72;;;5.59;81.62
15568;BME280;7885;42.596;23.044;2022-11-15T00:13:33;93462.00;;;5.56;81.32
15568;BME280;7885;42.596;23.044;2022-11-15T00:16:02;93463.41;;;5.50;77.45
15568;BME280;7885;42.596;23.044;2022-11-15T00:18:29;93461.66;;;5.42;78.13
15568;BME280;7885;42.596;23.044;2022-11-15T00:21:03;93470.31;;;5.48;77.22
15568;BME280;7885;42.596;23.044;2022-11-15T00:23:30;93469.94;;;5.49;77.22
15568;BME280;7885;42.596;23.044;2022-11-15T00:25:57;93434.16;;;5.21;78.83
15568;BME280;7885;42.596;23.044;2022-11-15T00:28:25;93466.19;;;5.38;78.46
15568;BME280;7885;42.596;23.044;2022-11-15T00:30:52;93468.38;;;5.33;80.37
15568;BME280;7885;42.596;23.044;2022-11-15T00:33:20;93459.06;;;5.30;81.79
15568;BME280;7885;42.596;23.044;2022-11-15T00:35:47;93471.75;;;5.45;82.54
15568;BME280;7885;42.596;23.044;2022-11-15T00:38:14;93422.22;;;5.22;81.40
15568;BME280;7885;42.596;23.044;2022-11-15T00:40:41;93460.72;;;5.50;80.90
15568;BME280;7885;42.596;23.044;2022-11-15T00:43:08;93464.28;;;5.54;81.13
15568;BME280;7885;42.596;23.044;2022-11-15T00:45:34;93462.81;;;5.57;81.57
15568;BME280;7885;42.596;23.044;2022-11-15T00:48:01;93463.41;;;5.50;81.45
15568;BME280;7885;42.596;23.044;2022-11-15T00:50:29;93423.91;;;5.27;80.89
15568;BME280;7885;42.596;23.044;2022-11-15T00:52:56;93462.88;;;5.60;80.27
15568;BME280;7885;42.596;23.044;2022-11-15T00:55:23;93433.72;;;5.50;79.43
15568;BME280;7885;42.596;23.044;2022-11-15T00:57:50;93462.59;;;5.66;77.97
15568;BME280;7885;42.596;23.044;2022-11-15T01:00:17;93436.25;;;5.43;78.22
15568;BME280;7885;42.596;23.044;2022-11-15T01:02:43;93454.94;;;5.52;77.67
15568;BME280;7885;42.596;23.044;2022-11-15T01:05:10;93447.28;;;5.38;77.68
15568;BME280;7885;42.596;23.044;2022-11-15T01:07:38;93457.56;;;5.48;78.00
15568;BME280;7885;42.596;23.044;2022-11-15T01:10:06;93433.63;;;5.31;78.74
15568;BME280;7885;42.596;23.044;2022-11-15T01:12:33;93464.13;;;5.47;78.61
15568;BME280;7885;42.596;23.044;2022-11-15T01:15:00;93458.72;;;5.47;78.51
15568;BME280;7885;42.596;23.044;2022-11-15T01:17:27;93447.56;;;5.33;76.37
15568;BME280;7885;42.596;23.044;2022-11-15T01:19:53;93446.69;;;5.29;75.75
15568;BME280;7885;42.596;23.044;2022-11-15T01:22:20;93458.97;;;5.27;76.75
15568;BME280;7885;42.596;23.044;2022-11-15T01:24:49;93403.16;;;4.84;76.53
15568;BME280;7885;42.596;23.044;2022-11-15T01:27:15;93458.53;;;5.09;78.67
15568;BME280;7885;42.596;23.044;2022-11-15T01:29:42;93454.53;;;5.03;79.93
15568;BME280;7885;42.596;23.044;2022-11-15T01:32:09;93429.41;;;4.87;79.02
15568;BME280;7885;42.596;23.044;2022-11-15T01:34:36;93459.81;;;4.99;75.86
15568;BME280;7885;42.596;23.044;2022-11-15T01:37:02;93454.25;;;4.92;77.95
15568;BME280;7885;42.596;23.044;2022-11-15T01:39:29;93406.88;;;4.64;77.72
15568;BME280;7885;42.596;23.044;2022-11-15T01:41:57;93447.88;;;4.85;76.87
15568;BME280;7885;42.596;23.044;2022-11-15T01:44:43;93449.09;;;4.87;76.03
15568;BME280;7885;42.596;23.044;2022-11-15T01:47:14;93451.50;;;4.77;75.28
15568;BME280;7885;42.596;23.044;2022-11-15T01:49:57;93452.19;;;4.74;75.93
15568;BME280;7885;42.596;23.044;2022-11-15T01:52:29;93456.69;;;4.70;77.42
15568;BME280;7885;42.596;23.044;2022-11-15T01:55:03;93453.81;;;4.63;77.34
15568;BME280;7885;42.596;23.044;2022-11-15T01:57:33;93428.31;;;4.44;77.16
15568;BME280;7885;42.596;23.044;2022-11-15T02:00:02;93453.28;;;4.57;78.67
15568;BME280;7885;42.596;23.044;2022-11-15T02:02:31;93439.19;;;4.48;80.06
15568;BME280;7885;42.596;23.044;2022-11-15T02:04:57;93414.06;;;4.32;80.42
15568;BME280;7885;42.596;23.044;2022-11-15T02:07:25;93447.78;;;4.53;81.54
15568;BME280;7885;42.596;23.044;2022-11-15T02:09:52;93433.78;;;4.48;83.00
15568;BME280;7885;42.596;23.044;2022-11-15T02:12:21;93439.22;;;4.64;83.14
15568;BME280;7885;42.596;23.044;2022-11-15T02:21:36;93446.59;;;4.67;78.81
15568;BME280;7885;42.596;23.044;2022-11-15T02:24:41;93434.41;;;4.57;81.10
15568;BME280;7885;42.596;23.044;2022-11-15T02:30:36;93432.16;;;4.31;81.65
15568;BME280;7885;42.596;23.044;2022-11-15T02:33:12;93431.94;;;4.24;81.27
15568;BME280;7885;42.596;23.044;2022-11-15T02:35:48;93426.72;;;4.16;80.25
15568;BME280;7885;42.596;23.044;2022-11-15T02:38:23;93433.78;;;4.20;79.47
15568;BME280;7885;42.596;23.044;2022-11-15T02:40:57;93390.66;;;3.92;80.33
15568;BME280;7885;42.596;23.044;2022-11-15T02:43:41;93424.56;;;4.21;80.06
15568;BME280;7885;42.596;23.044;2022-11-15T02:46:29;93387.03;;;4.00;81.04
15568;BME280;7885;42.596;23.044;2022-11-15T02:49:15;93421.16;;;4.24;82.33
15568;BME280;7885;42.596;23.044;2022-11-15T02:51:44;93432.81;;;4.40;83.58
15568;BME280;7885;42.596;23.044;2022-11-15T02:54:13;93426.53;;;4.36;82.58
15568;BME280;7885;42.596;23.044;2022-11-15T02:56:43;93379.13;;;4.20;82.22
15568;BME280;7885;42.596;23.044;2022-11-15T03:02:16;93406.75;;;4.44;81.43
15568;BME280;7885;42.596;23.044;2022-11-15T03:04:53;93394.03;;;4.45;81.58
15568;BME280;7885;42.596;23.044;2022-11-15T03:07:25;93424.75;;;4.56;80.69
15568;BME280;7885;42.596;23.044;2022-11-15T03:09:59;93400.00;;;4.38;79.46
15568;BME280;7885;42.596;23.044;2022-11-15T03:12:35;93397.81;;;4.28;79.17
15568;BME280;7885;42.596;23.044;2022-11-15T03:15:07;93417.31;;;4.37;77.90
15568;BME280;7885;42.596;23.044;2022-11-15T03:17:40;93426.53;;;4.36;77.46
15568;BME280;7885;42.596;23.044;2022-11-15T03:20:13;93415.34;;;4.22;78.34
15568;BME280;7885;42.596;23.044;2022-11-15T03:22:43;93357.34;;;3.85;80.68
15568;BME280;7885;42.596;23.044;2022-11-15T03:25:16;93425.25;;;4.18;80.74
15568;BME280;7885;42.596;23.044;2022-11-15T03:27:48;93421.84;;;4.21;81.86
15568;BME280;7885;42.596;23.044;2022-11-15T03:30:17;93392.38;;;4.13;82.05
15568;BME280;7885;42.596;23.044;2022-11-15T03:32:50;93411.25;;;4.40;81.84
15568;BME280;7885;42.596;23.044;2022-11-15T03:35:20;93412.13;;;4.44;80.61
15568;BME280;7885;42.596;23.044;2022-11-15T03:37:51;93392.97;;;4.34;79.97
15568;BME280;7885;42.596;23.044;2022-11-15T03:40:24;93399.50;;;4.33;79.44
15568;BME280;7885;42.596;23.044;2022-11-15T03:43:00;93375.22;;;4.17;79.25
15568;BME280;7885;42.596;23.044;2022-11-15T03:45:31;93390.78;;;4.24;78.70
15568;BME280;7885;42.596;23.044;2022-11-15T03:48:09;93396.16;;;4.24;78.57
15568;BME280;7885;42.596;23.044;2022-11-15T03:50:38;93390.09;;;4.27;78.80
15568;BME280;7885;42.596;23.044;2022-11-15T03:53:05;93353.25;;;4.03;77.96
15568;BME280;7885;42.596;23.044;2022-11-15T03:55:32;93388.22;;;4.15;77.32
15568;BME280;7885;42.596;23.044;2022-11-15T03:58:00;93394.72;;;4.14;77.06
15568;BME280;7885;42.596;23.044;2022-11-15T04:00:27;93380.19;;;4.03;79.11
15568;BME280;7885;42.596;23.044;2022-11-15T04:02:54;93368.13;;;3.85;79.97
15568;BME280;7885;42.596;23.044;2022-11-15T04:05:22;93371.91;;;3.96;80.01
15568;BME280;7885;42.596;23.044;2022-11-15T04:07:49;93354.47;;;3.66;79.14
15568;BME280;7885;42.596;23.044;2022-11-15T04:10:16;93359.63;;;3.71;81.83
15568;BME280;7885;42.596;23.044;2022-11-15T04:12:44;93382.16;;;3.78;83.15
15568;BME280;7885;42.596;23.044;2022-11-15T04:15:14;93375.41;;;3.84;83.03
15568;BME280;7885;42.596;23.044;2022-11-15T04:17:43;93379.09;;;3.92;83.56
15568;BME280;7885;42.596;23.044;2022-11-15T04:20:12;93385.16;;;3.89;80.95
15568;BME280;7885;42.596;23.044;2022-11-15T04:22:59;93382.69;;;3.84;80.76
15568;BME280;7885;42.596;23.044;2022-11-15T04:25:44;93358.06;;;3.70;81.99
15568;BME280;7885;42.596;23.044;2022-11-15T04:28:13;93380.69;;;3.93;82.26
15568;BME280;7885;42.596;23.044;2022-11-15T04:30:39;93371.59;;;3.85;80.55
15568;BME280;7885;42.596;23.044;2022-11-15T04:33:06;93364.97;;;3.83;78.31
15568;BME280;7885;42.596;23.044;2022-11-15T04:35:33;93377.56;;;3.79;78.98
15568;BME280;7885;42.596;23.044;2022-11-15T04:38:03;93376.09;;;3.69;79.09
15568;BME280;7885;42.596;23.044;2022-11-15T04:40:29;93372.88;;;3.76;79.11
15568;BME280;7885;42.596;23.044;2022-11-15T04:42:57;93371.41;;;3.66;79.46
15568;BME280;7885;42.596;23.044;2022-11-15T04:45:23;93357.09;;;3.50;79.86
15568;BME280;7885;42.596;23.044;2022-11-15T04:47:50;93378.72;;;3.53;80.70
15568;BME280;7885;42.596;23.044;2022-11-15T04:50:17;93376.94;;;3.45;79.52
15568;BME280;7885;42.596;23.044;2022-11-15T04:52:50;93370.59;;;3.38;80.18
15568;BME280;7885;42.596;23.044;2022-11-15T04:55:19;93368.91;;;3.33;81.23
15568;BME280;7885;42.596;23.044;2022-11-15T04:57:46;93378.09;;;3.32;82.60
15568;BME280;7885;42.596;23.044;2022-11-15T05:00:15;93381.88;;;3.31;83.76
15568;BME280;7885;42.596;23.044;2022-11-15T05:02:42;93377.06;;;3.25;84.32
15568;BME280;7885;42.596;23.044;2022-11-15T05:05:26;93383.81;;;3.19;84.75
15568;BME280;7885;42.596;23.044;2022-11-15T05:07:53;93387.16;;;3.03;85.52
15568;BME280;7885;42.596;23.044;2022-11-15T05:10:21;93376.09;;;2.93;85.61
15568;BME280;7885;42.596;23.044;2022-11-15T05:12:48;93339.31;;;2.73;87.40
15568;BME280;7885;42.596;23.044;2022-11-15T05:15:15;93385.25;;;3.04;88.29
15568;BME280;7885;42.596;23.044;2022-11-15T05:17:42;93385.72;;;3.06;89.31
15568;BME280;7885;42.596;23.044;2022-11-15T05:20:10;93375.88;;;3.10;88.43
15568;BME280;7885;42.596;23.044;2022-11-15T05:22:37;93382.69;;;3.20;89.83
15568;BME280;7885;42.596;23.044;2022-11-15T05:25:05;93379.31;;;3.23;86.61
15568;BME280;7885;42.596;23.044;2022-11-15T05:27:34;93380.34;;;3.30;86.01
15568;BME280;7885;42.596;23.044;2022-11-15T05:30:01;93320.06;;;2.95;83.02
15568;BME280;7885;42.596;23.044;2022-11-15T05:32:28;93370.91;;;3.24;81.47
15568;BME280;7885;42.596;23.044;2022-11-15T05:34:55;93390.84;;;3.35;80.82
15568;BME280;7885;42.596;23.044;2022-11-15T05:37:21;93393.66;;;3.39;81.00
15568;BME280;7885;42.596;23.044;2022-11-15T05:39:48;93386.81;;;3.53;81.56
15568;BME280;7885;42.596;23.044;2022-11-15T05:42:16;93372.19;;;3.67;79.22
15568;BME280;7885;42.596;23.044;2022-11-15T05:44:46;93387.13;;;4.04;78.56
15568;BME280;7885;42.596;23.044;2022-11-15T05:47:17;93384.81;;;4.30;79.59
15568;BME280;7885;42.596;23.044;2022-11-15T05:49:45;93385.63;;;4.62;78.54
15568;BME280;7885;42.596;23.044;2022-11-15T05:52:15;93337.28;;;4.69;77.17
15568;BME280;7885;42.596;23.044;2022-11-15T05:54:43;93384.19;;;5.12;75.28
15568;BME280;7885;42.596;23.044;2022-11-15T05:57:10;93340.16;;;5.23;73.01
15568;BME280;7885;42.596;23.044;2022-11-15T05:59:37;93363.97;;;5.87;71.51
15568;BME280;7885;42.596;23.044;2022-11-15T06:02:07;93365.06;;;6.40;69.65
15568;BME280;7885;42.596;23.044;2022-11-15T06:04:34;93379.81;;;7.30;68.18
15568;BME280;7885;42.596;23.044;2022-11-15T06:07:01;93386.44;;;8.41;65.36
15568;BME280;7885;42.596;23.044;2022-11-15T06:09:27;93363.38;;;9.35;61.40
15568;BME280;7885;42.596;23.044;2022-11-15T06:11:54;93381.97;;;10.35;58.19
15568;BME280;7885;42.596;23.044;2022-11-15T06:14:21;93395.84;;;11.06;55.83
15568;BME280;7885;42.596;23.044;2022-11-15T06:16:48;93365.56;;;11.50;53.65
15568;BME280;7885;42.596;23.044;2022-11-15T06:19:16;93382.72;;;11.79;51.92
15568;BME280;7885;42.596;23.044;2022-11-15T06:21:42;93387.41;;;11.71;51.80
15568;BME280;7885;42.596;23.044;2022-11-15T06:24:09;93316.50;;;11.39;51.67
15568;BME280;7885;42.596;23.044;2022-11-15T06:26:36;93381.03;;;12.45;50.57
15568;BME280;7885;42.596;23.044;2022-11-15T06:29:03;93384.53;;;13.43;48.39
15568;BME280;7885;42.596;23.044;2022-11-15T06:31:30;93340.13;;;14.17;45.95
15568;BME280;7885;42.596;23.044;2022-11-15T06:33:57;93352.88;;;15.32;42.77
15568;BME280;7885;42.596;23.044;2022-11-15T06:36:25;93380.25;;;16.59;40.53
15568;BME280;7885;42.596;23.044;2022-11-15T06:38:52;93374.59;;;17.64;38.14
15568;BME280;7885;42.596;23.044;2022-11-15T06:41:19;93374.69;;;18.58;35.78
15568;BME280;7885;42.596;23.044;2022-11-15T06:43:46;93344.94;;;19.36;33.35
15568;BME280;7885;42.596;23.044;2022-11-15T06:46:13;93361.19;;;20.35;31.54
15568;BME280;7885;42.596;23.044;2022-11-15T06:48:40;93352.13;;;21.03;30.53
15568;BME280;7885;42.596;23.044;2022-11-15T06:51:06;93370.63;;;22.11;28.97
15568;BME280;7885;42.596;23.044;2022-11-15T06:53:35;93367.28;;;22.92;27.48
15568;BME280;7885;42.596;23.044;2022-11-15T06:56:04;93361.25;;;23.48;26.29
15568;BME280;7885;42.596;23.044;2022-11-15T06:58:32;93352.41;;;24.10;25.54
15568;BME280;7885;42.596;23.044;2022-11-15T07:00:59;93329.91;;;24.64;24.63
15568;BME280;7885;42.596;23.044;2022-11-15T07:03:26;93339.00;;;25.27;23.82
15568;BME280;7885;42.596;23.044;2022-11-15T07:05:53;93364.84;;;25.66;22.65
15568;BME280;7885;42.596;23.044;2022-11-15T07:08:21;93355.06;;;25.71;22.54
15568;BME280;7885;42.596;23.044;2022-11-15T07:10:49;93331.59;;;25.77;21.86
15568;BME280;7885;42.596;23.044;2022-11-15T07:13:16;93366.50;;;26.51;21.90
15568;BME280;7885;42.596;23.044;2022-11-15T07:15:43;93356.94;;;26.93;21.28
15568;BME280;7885;42.596;23.044;2022-11-15T07:18:10;93343.94;;;27.50;20.83
15568;BME280;7885;42.596;23.044;2022-11-15T07:20:36;93333.38;;;28.17;20.33
15568;BME280;7885;42.596;23.044;2022-11-15T07:23:05;93323.75;;;28.60;19.72
15568;BME280;7885;42.596;23.044;2022-11-15T07:25:32;93361.31;;;28.43;19.58
15568;BME280;7885;42.596;23.044;2022-11-15T07:28:01;93358.50;;;28.37;19.65
15568;BME280;7885;42.596;23.044;2022-11-15T07:30:28;93276.56;;;27.48;19.98
15568;BME280;7885;42.596;23.044;2022-11-15T07:32:56;93357.31;;;27.67;20.66
15568;BME280;7885;42.596;23.044;2022-11-15T07:35:24;93355.56;;;27.69;20.37
15568;BME280;7885;42.596;23.044;2022-11-15T07:37:55;93355.56;;;27.69;20.59
15568;BME280;7885;42.596;23.044;2022-11-15T07:40:23;93322.66;;;27.58;20.43
15568;BME280;7885;42.596;23.044;2022-11-15T07:42:50;93356.81;;;28.20;20.38
15568;BME280;7885;42.596;23.044;2022-11-15T07:45:21;93342.44;;;28.38;20.22
15568;BME280;7885;42.596;23.044;2022-11-15T07:47:48;93352.03;;;28.63;20.33
15568;BME280;7885;42.596;23.044;2022-11-15T07:50:16;93356.84;;;28.99;19.63
15568;BME280;7885;42.596;23.044;2022-11-15T07:52:42;93357.72;;;29.22;19.47
15568;BME280;7885;42.596;23.044;2022-11-15T07:55:09;93318.78;;;29.29;19.16
15568;BME280;7885;42.596;23.044;2022-11-15T07:57:36;93351.09;;;30.06;19.15
15568;BME280;7885;42.596;23.044;2022-11-15T08:00:05;93348.03;;;30.60;18.56
15568;BME280;7885;42.596;23.044;2022-11-15T08:02:33;93348.88;;;31.34;18.25
15568;BME280;7885;42.596;23.044;2022-11-15T08:05:00;93358.75;;;31.63;17.38
15568;BME280;7885;42.596;23.044;2022-11-15T08:07:28;93336.13;;;31.80;17.12
15568;BME280;7885;42.596;23.044;2022-11-15T08:09:55;93348.03;;;32.38;17.00
15568;BME280;7885;42.596;23.044;2022-11-15T08:12:22;93349.84;;;32.65;16.83
15568;BME280;7885;42.596;23.044;2022-11-15T08:14:49;93339.97;;;32.53;16.60
15568;BME280;7885;42.596;23.044;2022-11-15T08:17:16;93337.84;;;33.37;16.35
15568;BME280;7885;42.596;23.044;2022-11-15T08:19:44;93330.63;;;33.61;16.44
15568;BME280;7885;42.596;23.044;2022-11-15T08:22:11;93333.53;;;33.92;15.99
15568;BME280;7885;42.596;23.044;2022-11-15T08:24:38;93331.75;;;34.08;15.88
15568;BME280;7885;42.596;23.044;2022-11-15T08:27:05;93227.78;;;33.75;15.82
15568;BME280;7885;42.596;23.044;2022-11-15T08:29:40;93303.22;;;34.43;15.60
15568;BME280;7885;42.596;23.044;2022-11-15T08:32:08;93325.50;;;34.79;15.26
15568;BME280;7885;42.596;23.044;2022-11-15T08:34:35;93331.72;;;35.04;15.11
15568;BME280;7885;42.596;23.044;2022-11-15T08:37:03;93303.00;;;34.99;14.88
15568;BME280;7885;42.596;23.044;2022-11-15T08:39:38;93320.97;;;34.89;15.25
15568;BME280;7885;42.596;23.044;2022-11-15T08:42:05;93314.91;;;34.66;15.22
15568;BME280;7885;42.596;23.044;2022-11-15T08:44:31;93324.63;;;34.97;15.11
15568;BME280;7885;42.596;23.044;2022-11-15T08:46:58;93296.78;;;34.88;15.19
15568;BME280;7885;42.596;23.044;2022-11-15T08:49:25;93310.31;;;35.21;14.68
15568;BME280;7885;42.596;23.044;2022-11-15T08:51:51;93319.41;;;34.88;14.98
15568;BME280;7885;42.596;23.044;2022-11-15T08:54:20;93286.00;;;34.28;15.18
15568;BME280;7885;42.596;23.044;2022-11-15T08:56:46;93308.63;;;34.41;15.30
15568;BME280;7885;42.596;23.044;2022-11-15T08:59:13;93305.41;;;34.00;15.77
15568;BME280;7885;42.596;23.044;2022-11-15T09:01:40;93299.19;;;33.70;15.94
15568;BME280;7885;42.596;23.044;2022-11-15T09:04:07;93302.22;;;34.09;15.49
15568;BME280;7885;42.596;23.044;2022-11-15T09:06:33;93297.31;;;34.73;15.54
15568;BME280;7885;42.596;23.044;2022-11-15T09:09:00;93279.84;;;35.14;15.45
15568;BME280;7885;42.596;23.044;2022-11-15T09:11:29;93272.63;;;35.39;15.00
15568;BME280;7885;42.596;23.044;2022-11-15T09:13:55;93246.97;;;35.11;15.41
15568;BME280;7885;42.596;23.044;2022-11-15T09:16:22;93274.91;;;35.41;15.13
15568;BME280;7885;42.596;23.044;2022-11-15T09:18:49;93242.16;;;34.93;15.37
15568;BME280;7885;42.596;23.044;2022-11-15T09:21:16;93185.19;;;34.63;15.32
15568;BME280;7885;42.596;23.044;2022-11-15T09:23:43;93250.25;;;34.89;15.17
15568;BME280;7885;42.596;23.044;2022-11-15T09:26:09;93245.13;;;35.14;15.07
15568;BME280;7885;42.596;23.044;2022-11-15T09:28:38;93239.84;;;35.44;14.86
15568;BME280;7885;42.596;23.044;2022-11-15T09:31:07;93186.03;;;34.97;14.92
15568;BME280;7885;42.596;23.044;2022-11-15T09:33:35;93209.97;;;35.22;15.22
15568;BME280;7885;42.596;23.044;2022-11-15T09:36:04;93238.44;;;35.51;14.66
15568;BME280;7885;42.596;23.044;2022-11-15T09:38:32;93226.75;;;35.67;15.15
15568;BME280;7885;42.596;23.044;2022-11-15T09:41:17;93228.06;;;35.87;15.18
15568;BME280;7885;42.596;23.044;2022-11-15T09:43:54;93190.34;;;35.37;15.01
15568;BME280;7885;42.596;23.044;2022-11-15T09:46:32;93209.84;;;35.95;14.92
15568;BME280;7885;42.596;23.044;2022-11-15T09:52:27;93205.16;;;35.30;15.00
15568;BME280;7885;42.596;23.044;2022-11-15T09:54:54;93165.72;;;34.85;15.31
15568;BME280;7885;42.596;23.044;2022-11-15T09:57:27;93181.13;;;34.97;15.53
15568;BME280;7885;42.596;23.044;2022-11-15T10:00:21;93209.06;;;35.27;15.64
15568;BME280;7885;42.596;23.044;2022-11-15T10:03:02;93202.34;;;35.30;15.32
15568;BME280;7885;42.596;23.044;2022-11-15T10:05:31;93197.03;;;35.61;15.18
15568;BME280;7885;42.596;23.044;2022-11-15T10:08:13;93186.84;;;35.31;15.36
15568;BME280;7885;42.596;23.044;2022-11-15T10:10:47;93188.19;;;35.30;15.68
15568;BME280;7885;42.596;23.044;2022-11-15T10:13:21;93179.78;;;35.59;15.61
15568;BME280;7885;42.596;23.044;2022-11-15T10:15:51;93180.03;;;35.61;15.52
15568;BME280;7885;42.596;23.044;2022-11-15T10:18:23;93184.22;;;36.01;15.33
15568;BME280;7885;42.596;23.044;2022-11-15T10:20:58;93188.28;;;35.72;15.34
15568;BME280;7885;42.596;23.044;2022-11-15T10:23:26;93170.81;;;36.22;15.29
15568;BME280;7885;42.596;23.044;2022-11-15T10:25:55;93164.94;;;36.20;15.37
15568;BME280;7885;42.596;23.044;2022-11-15T10:28:26;93151.31;;;35.98;15.01
15568;BME280;7885;42.596;23.044;2022-11-15T10:30:56;93162.19;;;36.07;14.83
15568;BME280;7885;42.596;23.044;2022-11-15T10:33:27;93130.66;;;36.11;15.19
15568;BME280;7885;42.596;23.044;2022-11-15T10:36:21;93112.63;;;35.80;15.28
15568;BME280;7885;42.596;23.044;2022-11-15T10:38:57;93146.59;;;35.80;15.32
15568;BME280;7885;42.596;23.044;2022-11-15T10:41:38;93136.53;;;35.92;15.58
15568;BME280;7885;42.596;23.044;2022-11-15T10:44:19;93129.75;;;35.74;15.40
15568;BME280;7885;42.596;23.044;2022-11-15T10:50:31;93103.97;;;35.44;15.57
15568;BME280;7885;42.596;23.044;2022-11-15T10:52:58;93094.47;;;35.08;15.98
15568;BME280;7885;42.596;23.044;2022-11-15T10:55:29;93112.47;;;34.97;16.29
15568;BME280;7885;42.596;23.044;2022-11-15T10:58:02;93110.00;;;34.80;16.25
15568;BME280;7885;42.596;23.044;2022-11-15T11:00:35;93106.00;;;34.63;16.77
15568;BME280;7885;42.596;23.044;2022-11-15T11:03:05;93099.91;;;34.06;16.79
15568;BME280;7885;42.596;23.044;2022-11-15T11:05:36;93088.75;;;33.69;17.15
15568;BME280;7885;42.596;23.044;2022-11-15T11:08:09;93099.09;;;33.47;17.37
15568;BME280;7885;42.596;23.044;2022-11-15T11:10:52;93088.25;;;33.01;18.03
15568;BME280;7885;42.596;23.044;2022-11-15T11:13:22;93089.66;;;32.51;18.32
15568;BME280;7885;42.596;23.044;2022-11-15T11:15:54;93084.91;;;31.98;19.18
15568;BME280;7885;42.596;23.044;2022-11-15T11:18:25;93071.56;;;31.44;19.47
15568;BME280;7885;42.596;23.044;2022-11-15T11:20:58;93049.19;;;30.63;19.95
15568;BME280;7885;42.596;23.044;2022-11-15T11:23:44;93050.50;;;29.93;21.14
15568;BME280;7885;42.596;23.044;2022-11-15T11:26:29;93022.31;;;29.35;21.53
15568;BME280;7885;42.596;23.044;2022-11-15T11:29:02;92996.59;;;28.76;21.88
15568;BME280;7885;42.596;23.044;2022-11-15T11:31:37;93034.56;;;28.82;22.28
15568;BME280;7885;42.596;23.044;2022-11-15T11:34:14;93019.50;;;28.57;22.72
15568;BME280;7885;42.596;23.044;2022-11-15T11:36:50;93034.00;;;28.62;22.92
15568;BME280;7885;42.596;23.044;2022-11-15T11:39:24;93018.53;;;28.72;22.91
15568;BME280;7885;42.596;23.044;2022-11-15T11:42:04;93025.41;;;28.82;22.49
15568;BME280;7885;42.596;23.044;2022-11-15T11:44:44;93026.91;;;28.77;22.59
15568;BME280;7885;42.596;23.044;2022-11-15T11:47:21;93017.94;;;28.56;22.31
15568;BME280;7885;42.596;23.044;2022-11-15T11:49:51;93020.50;;;28.66;22.33
15568;BME280;7885;42.596;23.044;2022-11-15T11:52:24;93013.66;;;28.67;22.03
15568;BME280;7885;42.596;23.044;2022-11-15T11:54:59;93013.88;;;28.46;22.18
15568;BME280;7885;42.596;23.044;2022-11-15T11:57:34;93000.88;;;28.27;22.56
15568;BME280;7885;42.596;23.044;2022-11-15T12:00:14;92983.78;;;28.19;22.69
15568;BME280;7885;42.596;23.044;2022-11-15T12:02:46;92995.03;;;28.30;22.69
15568;BME280;7885;42.596;23.044;2022-11-15T12:05:16;92999.06;;;28.35;22.31
15568;BME280;7885;42.596;23.044;2022-11-15T12:07:46;92985.06;;;28.13;22.37
15568;BME280;7885;42.596;23.044;2022-11-15T12:10:20;92944.03;;;28.04;22.56
15568;BME280;7885;42.596;23.044;2022-11-15T12:12:55;92989.41;;;28.30;22.68
15568;BME280;7885;42.596;23.044;2022-11-15T12:15:25;92983.56;;;28.34;23.38
15568;BME280;7885;42.596;23.044;2022-11-15T12:17:55;92972.31;;;28.17;22.83
15568;BME280;7885;42.596;23.044;2022-11-15T12:20:32;92984.09;;;28.43;22.77
15568;BME280;7885;42.596;23.044;2022-11-15T12:23:05;92945.09;;;28.12;22.35
15568;BME280;7885;42.596;23.044;2022-11-15T12:25:45;92979.72;;;28.31;22.44
15568;BME280;7885;42.596;23.044;2022-11-15T12:28:17;92975.41;;;28.25;22.90
15568;BME280;7885;42.596;23.044;2022-11-15T12:30:52;92967.50;;;28.12;22.81
15568;BME280;7885;42.596;23.044;2022-11-15T12:33:32;92920.09;;;27.81;22.94
15568;BME280;7885;42.596;23.044;2022-11-15T12:36:03;92968.06;;;27.63;22.90
15568;BME280;7885;42.596;23.044;2022-11-15T12:38:56;92964.25;;;26.81;24.00
15568;BME280;7885;42.596;23.044;2022-11-15T12:41:25;92930.53;;;25.96;25.41
15568;BME280;7885;42.596;23.044;2022-11-15T12:43:52;92914.00;;;25.67;25.35
15568;BME280;7885;42.596;23.044;2022-11-15T12:46:21;92901.22;;;25.54;25.83
15568;BME280;7885;42.596;23.044;2022-11-15T12:48:54;92939.34;;;25.69;26.33
15568;BME280;7885;42.596;23.044;2022-11-15T12:57:42;92935.84;;;24.93;27.12
15568;BME280;7885;42.596;23.044;2022-11-15T13:00:42;92923.19;;;24.92;26.94
15568;BME280;7885;42.596;23.044;2022-11-15T13:03:28;92933.53;;;25.26;26.79
15568;BME280;7885;42.596;23.044;2022-11-15T13:06:06;92931.16;;;25.19;26.97
15568;BME280;7885;42.596;23.044;2022-11-15T13:11:46;92925.78;;;24.46;28.04
15568;BME280;7885;42.596;23.044;2022-11-15T13:14:43;92921.22;;;24.28;28.36
15568;BME280;7885;42.596;23.044;2022-11-15T13:17:30;92917.34;;;23.67;29.46
15568;BME280;7885;42.596;23.044;2022-11-15T13:20:02;92915.88;;;23.19;30.69
15568;BME280;7885;42.596;23.044;2022-11-15T13:22:38;92926.34;;;23.00;31.39
15568;BME280;7885;42.596;23.044;2022-11-15T13:28:27;92916.22;;;22.31;32.60
15568;BME280;7885;42.596;23.044;2022-11-15T13:30:59;92921.69;;;22.17;32.87
15568;BME280;7885;42.596;23.044;2022-11-15T13:33:30;92921.59;;;22.02;33.33
15568;BME280;7885;42.596;23.044;2022-11-15T13:36:01;92918.97;;;21.89;33.17
15568;BME280;7885;42.596;23.044;2022-11-15T13:38:30;92901.00;;;21.66;33.50
15568;BME280;7885;42.596;23.044;2022-11-15T13:40:58;92919.69;;;21.48;33.54
15568;BME280;7885;42.596;23.044;2022-11-15T13:43:29;92897.22;;;21.19;34.04
15568;BME280;7885;42.596;23.044;2022-11-15T13:46:06;92912.00;;;21.15;34.39
15568;BME280;7885;42.596;23.044;2022-11-15T13:48:33;92913.53;;;21.17;35.01
15568;BME280;7885;42.596;23.044;2022-11-15T13:51:01;92907.78;;;20.84;34.81
15568;BME280;7885;42.596;23.044;2022-11-15T13:53:30;92914.34;;;20.59;35.50
15568;BME280;7885;42.596;23.044;2022-11-15T13:55:58;92900.66;;;20.46;35.15